createdAt,value
2023-04-02T00:01:34.699Z,94644.44
2023-04-02T00:04:36.357Z,94640.97
2023-04-02T00:07:39.578Z,94643.66
2023-04-02T00:10:47.813Z,94647.50
2023-04-02T00:13:52.254Z,94646.34
2023-04-02T00:16:55.157Z,94647.88
2023-04-02T00:19:58.354Z,94646.75
2023-04-02T00:23:02.221Z,94646.38
2023-04-02T00:26:06.652Z,94649.81
2023-04-02T00:29:11.066Z,94663.63
2023-04-02T00:32:17.414Z,94655.94
2023-04-02T00:35:20.918Z,94663.25
2023-04-02T00:38:25.155Z,94655.94
2023-04-02T00:41:28.762Z,94663.59
2023-04-02T00:44:31.694Z,94673.19
2023-04-02T00:47:35.502Z,94675.53
2023-04-02T00:50:41.118Z,94682.06
2023-04-02T00:53:45.302Z,94675.47
2023-04-02T00:56:48.914Z,94681.97
2023-04-02T00:59:58.304Z,94668.94
2023-04-02T01:03:30.557Z,94669.31
2023-04-02T01:06:35.473Z,94672.72
2023-04-02T01:09:47.684Z,94685.38
2023-04-02T01:12:55.784Z,94667.72
2023-04-02T01:16:01.013Z,94668.06
2023-04-02T01:19:08.167Z,94663.06
2023-04-02T01:22:15.628Z,94664.63
2023-04-02T01:25:22.549Z,94664.97
2023-04-02T01:28:27.390Z,94653.88
2023-04-02T01:31:31.617Z,94657.72
2023-04-02T01:34:36.116Z,94663.47
2023-04-02T01:37:41.066Z,94666.19
2023-04-02T01:40:46.530Z,94667.31
2023-04-02T01:43:52.260Z,94674.63
2023-04-02T01:46:55.607Z,94689.97
2023-04-02T01:49:58.096Z,94672.38
2023-04-02T01:53:02.003Z,94671.56
2023-04-02T01:56:03.688Z,94675.81
2023-04-02T01:59:06.990Z,94670.00
2023-04-02T02:02:13.286Z,94674.66
2023-04-02T02:05:16.428Z,94674.66
2023-04-02T02:08:27.799Z,94681.97
2023-04-02T02:11:30.324Z,94682.72
2023-04-02T02:14:32.434Z,94675.41
2023-04-02T02:17:36.191Z,94680.03
2023-04-02T02:20:37.892Z,94672.38
2023-04-02T02:23:39.684Z,94679.63
2023-04-02T02:26:42.506Z,94681.47
2023-04-02T02:29:46.964Z,94684.19
2023-04-02T02:32:54.444Z,94692.28
2023-04-02T02:35:58.352Z,94692.28
2023-04-02T02:39:03.335Z,94700.66
2023-04-02T02:42:10.773Z,94693.38
2023-04-02T02:45:15.407Z,94688.00
2023-04-02T02:48:19.541Z,94694.50
2023-04-02T02:51:24.642Z,94695.28
2023-04-02T02:54:27.427Z,94694.91
2023-04-02T02:57:31.821Z,94706.78
2023-04-02T03:00:35.677Z,94702.22
2023-04-02T03:03:40.647Z,94714.81
2023-04-02T03:06:42.866Z,94712.16
2023-04-02T03:09:48.453Z,94712.56
2023-04-02T03:12:53.288Z,94703.69
2023-04-02T03:15:58.996Z,94706.78
2023-04-02T03:19:06.228Z,94714.44
2023-04-02T03:22:12.003Z,94711.00
2023-04-02T03:25:20.857Z,94716.34
2023-04-02T03:28:26.146Z,94711.69
2023-04-02T03:31:31.572Z,94719.72
2023-04-02T03:34:37.378Z,94719.03
2023-04-02T03:37:41.133Z,94723.69
2023-04-02T03:40:44.884Z,94722.53
2023-04-02T03:43:47.451Z,94726.38
2023-04-02T03:46:53.064Z,94722.88
2023-04-02T03:50:00.341Z,94722.88
2023-04-02T03:53:02.546Z,94731.75
2023-04-02T03:56:04.977Z,94737.44
2023-04-02T03:59:12.539Z,94739.38
2023-04-02T04:02:20.420Z,94741.25
2023-04-02T04:05:26.615Z,94743.94
2023-04-02T04:08:33.985Z,94754.25
2023-04-02T04:11:37.233Z,94747.00
2023-04-02T04:14:43.995Z,94752.41
2023-04-02T04:17:50.994Z,94755.09
2023-04-02T04:20:57.176Z,94764.72
2023-04-02T04:24:01.577Z,94761.59
2023-04-02T04:27:06.351Z,94768.50
2023-04-02T04:30:14.786Z,94771.97
2023-04-02T04:33:19.215Z,94774.63
2023-04-02T04:36:24.887Z,94770.81
2023-04-02T04:39:29.223Z,94778.44
2023-04-02T04:42:33.340Z,94787.72
2023-04-02T04:45:38.390Z,94783.44
2023-04-02T04:48:46.335Z,94786.13
2023-04-02T04:51:51.819Z,94800.72
2023-04-02T04:54:53.741Z,94799.16
2023-04-02T04:57:58.601Z,94791.91
2023-04-02T05:01:03.375Z,94801.09
2023-04-02T05:04:09.305Z,94807.38
2023-04-02T05:07:14.319Z,94807.66
2023-04-02T05:10:19.539Z,94810.00
2023-04-02T05:13:24.910Z,94811.53
2023-04-02T05:16:29.826Z,94820.38
2023-04-02T05:19:37.796Z,94818.09
2023-04-02T05:22:44.576Z,94828.47
2023-04-02T05:25:54.893Z,94834.50
2023-04-02T05:29:00.867Z,94834.84
2023-04-02T05:32:06.822Z,94831.81
2023-04-02T05:35:15.353Z,94835.53
2023-04-02T05:38:22.789Z,94841.25
2023-04-02T05:41:26.485Z,94843.22
2023-04-02T05:44:29.967Z,94836.69
2023-04-02T05:47:32.278Z,94837.81
2023-04-02T05:50:36.328Z,94848.56
2023-04-02T05:53:40.890Z,94847.72
2023-04-02T05:56:43.793Z,94853.50
2023-04-02T05:59:48.631Z,94851.53
2023-04-02T06:02:53.224Z,94858.00
2023-04-02T06:05:58.199Z,94867.28
2023-04-02T06:09:06.296Z,94859.97
2023-04-02T06:12:16.089Z,94871.09
2023-04-02T06:15:18.900Z,94863.78
2023-04-02T06:18:23.282Z,94874.53
2023-04-02T06:21:25.795Z,94872.22
2023-04-02T06:24:30.216Z,94876.91
2023-04-02T06:27:32.909Z,94880.72
2023-04-02T06:30:35.736Z,94884.91
2023-04-02T06:33:37.436Z,94890.63
2023-04-02T06:36:39.255Z,94894.41
2023-04-02T06:39:42.667Z,94893.28
2023-04-02T06:42:47.415Z,94903.97
2023-04-02T06:45:52.281Z,94907.81
2023-04-02T06:48:56.838Z,94904.75
2023-04-02T06:52:00.565Z,94912.03
2023-04-02T06:55:07.816Z,94915.53
2023-04-02T06:58:11.190Z,94924.78
2023-04-02T07:01:16.725Z,94929.66
2023-04-02T07:04:18.928Z,94934.66
2023-04-02T07:07:22.035Z,94934.31
2023-04-02T07:10:25.302Z,94937.81
2023-04-02T07:13:26.993Z,94937.06
2023-04-02T07:16:30.717Z,94942.03
2023-04-02T07:19:32.385Z,94948.94
2023-04-02T07:22:34.032Z,94956.81
2023-04-02T07:25:38.871Z,94951.50
2023-04-02T07:28:40.851Z,94959.44
2023-04-02T07:31:42.600Z,94962.53
2023-04-02T07:34:44.232Z,94968.81
2023-04-02T07:37:46.164Z,94963.78
2023-04-02T07:40:49.192Z,94972.81
2023-04-02T07:43:50.940Z,94967.22
2023-04-02T07:46:52.638Z,94978.06
2023-04-02T07:49:54.436Z,94978.47
2023-04-02T07:52:56.496Z,94984.19
2023-04-02T07:56:00.180Z,94990.00
2023-04-02T07:59:01.841Z,94991.47
2023-04-02T08:02:03.449Z,94997.50
2023-04-02T08:05:06.039Z,95007.72
2023-04-02T08:08:07.830Z,95005.41
2023-04-02T08:11:11.496Z,95012.84
2023-04-02T08:14:14.394Z,95007.75
2023-04-02T08:17:16.056Z,95016.22
2023-04-02T08:20:18.074Z,95017.72
2023-04-02T08:23:21.240Z,95010.81
2023-04-02T08:26:24.306Z,95020.00
2023-04-02T08:29:26.042Z,95018.63
2023-04-02T08:32:28.230Z,95025.47
2023-04-02T08:35:31.305Z,95020.91
2023-04-02T08:38:33.574Z,95025.53
2023-04-02T08:41:39.029Z,95030.91
2023-04-02T08:44:45.680Z,95032.13
2023-04-02T08:47:49.429Z,95035.63
2023-04-02T08:50:51.984Z,95030.19
2023-04-02T08:53:55.377Z,95034.03
2023-04-02T08:57:01.782Z,95043.72
2023-04-02T09:00:06.397Z,95038.50
2023-04-02T09:03:09.615Z,95037.91
2023-04-02T09:06:15.367Z,95036.75
2023-04-02T09:09:19.720Z,95037.22
2023-04-02T09:12:26.041Z,95041.63
2023-04-02T09:15:29.733Z,95039.69
2023-04-02T09:18:32.562Z,95050.50
2023-04-02T09:21:36.523Z,95044.78
2023-04-02T09:24:38.194Z,95056.72
2023-04-02T09:27:41.855Z,95053.63
2023-04-02T09:30:55.125Z,95056.44
2023-04-02T09:33:57.090Z,95070.16
2023-04-02T09:37:06.852Z,95071.25
2023-04-02T09:40:17.754Z,95074.28
2023-04-02T09:43:22.253Z,95070.28
2023-04-02T09:46:25.119Z,95083.03
2023-04-02T09:49:28.752Z,95075.69
2023-04-02T09:52:30.742Z,95085.06
2023-04-02T09:55:32.812Z,95091.50
2023-04-02T09:58:37.731Z,95092.69
2023-04-02T10:01:41.062Z,95085.72
2023-04-02T10:04:43.850Z,95096.84
2023-04-02T10:07:46.067Z,95098.31
2023-04-02T10:10:50.757Z,95104.09
2023-04-02T10:13:56.269Z,95097.34
2023-04-02T10:17:00.180Z,95095.38
2023-04-02T10:20:06.091Z,95106.81
2023-04-02T10:23:15.001Z,95104.78
2023-04-02T10:26:31.389Z,95104.34
2023-04-02T10:29:51.990Z,95123.16
2023-04-02T10:32:55.969Z,95111.91
2023-04-02T10:36:00.699Z,95114.88
2023-04-02T10:39:02.930Z,95107.28
2023-04-02T10:42:09.590Z,95119.94
2023-04-02T10:45:18.658Z,95110.47
2023-04-02T10:48:22.135Z,95116.47
2023-04-02T10:51:35.495Z,95124.50
2023-04-02T10:54:40.551Z,95123.75
2023-04-02T10:57:43.718Z,95131.06
2023-04-02T11:00:48.450Z,95124.19
2023-04-02T11:03:53.049Z,95128.34
2023-04-02T11:07:07.573Z,95146.72
2023-04-02T11:10:17.539Z,95138.41
2023-04-02T11:13:23.127Z,95144.03
2023-04-02T11:16:27.548Z,95140.09
2023-04-02T11:19:30.532Z,95132.06
2023-04-02T11:22:32.415Z,95137.66
2023-04-02T11:25:34.601Z,95136.31
2023-04-02T11:28:36.872Z,95148.41
2023-04-02T11:31:40.302Z,95152.22
2023-04-02T11:35:06.354Z,95151.88
2023-04-02T11:38:24.225Z,95157.13
2023-04-02T11:41:44.591Z,95155.41
2023-04-02T11:44:46.510Z,95161.00
2023-04-02T11:48:04.201Z,95163.28
2023-04-02T11:51:16.208Z,95159.13
2023-04-02T11:54:26.391Z,95164.25
2023-04-02T11:57:46.872Z,95160.31
2023-04-02T12:01:01.011Z,95167.13
2023-04-02T12:04:10.993Z,95165.59
2023-04-02T12:07:33.146Z,95162.59
2023-04-02T12:10:49.518Z,95161.59
2023-04-02T12:13:52.728Z,95171.53
2023-04-02T12:16:54.963Z,95169.75
2023-04-02T12:19:58.121Z,95174.34
2023-04-02T12:23:01.962Z,95176.63
2023-04-02T12:26:06.096Z,95182.41
2023-04-02T12:29:22.801Z,95169.69
2023-04-02T12:32:27.695Z,95176.78
2023-04-02T12:35:33.151Z,95179.06
2023-04-02T12:38:44.500Z,95180.69
2023-04-02T12:41:46.542Z,95178.72
2023-04-02T12:44:48.526Z,95180.25
2023-04-02T12:47:50.249Z,95187.69
2023-04-02T12:50:52.367Z,95185.34
2023-04-02T12:53:57.384Z,95179.25
2023-04-02T12:57:14.242Z,95195.03
2023-04-02T13:00:29.415Z,95192.47
2023-04-02T13:03:31.343Z,95194.06
2023-04-02T13:06:34.217Z,95190.31
2023-04-02T13:09:42.970Z,95192.31
2023-04-02T13:12:44.905Z,95194.56
2023-04-02T13:15:59.598Z,95195.78
2023-04-02T13:19:11.848Z,95201.53
2023-04-02T13:22:29.959Z,95198.94
2023-04-02T13:25:35.630Z,95191.34
2023-04-02T13:28:39.131Z,95193.34
2023-04-02T13:31:41.314Z,95193.63
2023-04-02T13:34:42.962Z,95199.50
2023-04-02T13:37:45.865Z,95197.88
2023-04-02T13:40:49.053Z,95205.16
2023-04-02T13:43:51.784Z,95198.22
2023-04-02T13:46:54.420Z,95193.63
2023-04-02T13:49:59.090Z,95202.06
2023-04-02T13:53:05.800Z,95210.13
2023-04-02T13:56:09.907Z,95207.44
2023-04-02T13:59:11.538Z,95205.50
2023-04-02T14:02:14.846Z,95201.84
2023-04-02T14:05:27.329Z,95207.69
2023-04-02T14:08:36.579Z,95214.53
2023-04-02T14:11:47.682Z,95212.88
2023-04-02T14:14:56.256Z,95210.31
2023-04-02T14:18:08.692Z,95211.50
2023-04-02T14:21:14.967Z,95213.34
2023-04-02T14:24:19.467Z,95216.88
2023-04-02T14:27:29.893Z,95219.59
2023-04-02T14:30:37.523Z,95223.88
2023-04-02T14:33:42.953Z,95222.28
2023-04-02T14:36:49.615Z,95223.81
2023-04-02T14:39:58.671Z,95231.47
2023-04-02T14:43:04.968Z,95233.44
2023-04-02T14:46:07.722Z,95226.56
2023-04-02T14:49:18.025Z,95233.91
2023-04-02T14:52:21.428Z,95238.88
2023-04-02T14:55:27.050Z,95241.47
2023-04-02T14:58:33.450Z,95241.34
2023-04-02T15:01:38.064Z,95251.56
2023-04-02T15:04:41.415Z,95252.69
2023-04-02T15:07:47.370Z,95253.13
2023-04-02T15:10:54.445Z,95259.84
2023-04-02T15:14:00.623Z,95266.38
2023-04-02T15:17:03.239Z,95267.88
2023-04-02T15:20:12.657Z,95272.66
2023-04-02T15:23:19.846Z,95283.72
2023-04-02T15:26:26.456Z,95289.63
2023-04-02T15:29:35.329Z,95294.72
2023-04-02T15:32:38.731Z,95288.47
2023-04-02T15:35:45.621Z,95294.16
2023-04-02T15:38:49.187Z,95296.94
2023-04-02T15:41:56.952Z,95309.53
2023-04-02T15:45:09.413Z,95306.50
2023-04-02T15:48:29.518Z,95315.72
2023-04-02T15:51:39.160Z,95324.31
2023-04-02T15:54:47.280Z,95330.16
2023-04-02T15:58:05.872Z,95332.25
2023-04-02T16:01:12.078Z,95336.28
2023-04-02T16:04:26.455Z,95346.59
2023-04-02T16:07:44.688Z,95349.19
2023-04-02T16:10:46.650Z,95349.91
2023-04-02T16:13:49.584Z,95360.38
2023-04-02T16:16:56.078Z,95361.03
2023-04-02T16:20:08.105Z,95370.06
2023-04-02T16:23:13.563Z,95367.09
2023-04-02T16:26:33.549Z,95375.91
2023-04-02T16:29:51.608Z,95382.38
2023-04-02T16:33:08.683Z,95395.41
2023-04-02T16:36:17.854Z,95398.28
2023-04-02T16:39:30.597Z,95397.22
2023-04-02T16:42:38.154Z,95403.06
2023-04-02T16:45:46.899Z,95400.59
2023-04-02T16:48:54.983Z,95406.38
2023-04-02T16:52:04.019Z,95414.56
2023-04-02T16:55:17.094Z,95426.09
2023-04-02T16:58:25.356Z,95431.50
2023-04-02T17:01:33.103Z,95441.69
2023-04-02T17:04:46.138Z,95443.63
2023-04-02T17:07:51.902Z,95441.19
2023-04-02T17:10:57.901Z,95451.41
2023-04-02T17:14:03.995Z,95460.13
2023-04-02T17:17:06.721Z,95471.81
2023-04-02T17:20:16.419Z,95478.06
2023-04-02T17:23:20.057Z,95472.19
2023-04-02T17:26:23.651Z,95481.03
2023-04-02T17:29:30.247Z,95484.13
2023-04-02T17:32:33.998Z,95489.78
2023-04-02T17:35:43.264Z,95487.41
2023-04-02T17:38:52.033Z,95504.44
2023-04-02T17:41:56.214Z,95505.47
2023-04-02T17:45:03.445Z,95517.06
2023-04-02T17:48:12.862Z,95523.81
2023-04-02T17:51:26.910Z,95528.50
2023-04-02T17:54:34.424Z,95530.47
2023-04-02T17:57:44.460Z,95537.72
2023-04-02T18:00:54.413Z,95541.78
2023-04-02T18:04:05.234Z,95550.13
2023-04-02T18:07:21.888Z,95555.47
2023-04-02T18:10:27.933Z,95556.19
2023-04-02T18:13:33.503Z,95560.53
2023-04-02T18:16:52.966Z,95567.16
2023-04-02T18:19:59.225Z,95568.16
2023-04-02T18:23:08.476Z,95579.53
2023-04-02T18:26:14.586Z,95583.75
2023-04-02T18:29:22.439Z,95577.78
2023-04-02T18:32:39.771Z,95581.53
2023-04-02T18:35:51.021Z,95593.34
2023-04-02T18:38:58.289Z,95602.31
2023-04-02T18:42:08.636Z,95610.41
2023-04-02T18:45:15.291Z,95614.84
2023-04-02T18:48:25.656Z,95618.19
2023-04-02T18:51:31.204Z,95630.03
2023-04-02T18:54:37.487Z,95628.31
2023-04-02T18:57:42.407Z,95635.59
2023-04-02T19:00:46.867Z,95648.94
2023-04-02T19:03:53.143Z,95648.63
2023-04-02T19:07:00.696Z,95647.41
2023-04-02T19:10:07.800Z,95654.75
2023-04-02T19:13:15.213Z,95655.53
2023-04-02T19:16:31.276Z,95672.09
2023-04-02T19:19:37.882Z,95678.31
2023-04-02T19:22:44.345Z,95681.03
2023-04-02T19:25:56.723Z,95687.03
2023-04-02T19:29:06.144Z,95698.66
2023-04-02T19:32:12.246Z,95698.69
2023-04-02T19:35:19.105Z,95719.66
2023-04-02T19:38:34.146Z,95721.03
2023-04-02T19:41:42.715Z,95724.66
2023-04-02T19:44:47.249Z,95725.50
2023-04-02T19:47:49.983Z,95738.56
2023-04-02T19:50:52.190Z,95738.13
2023-04-02T19:53:55.241Z,95738.22
2023-04-02T19:56:59.351Z,95750.69
2023-04-02T20:00:02.205Z,95750.28
2023-04-02T20:03:07.383Z,95756.44
2023-04-02T20:06:10.495Z,95757.78
2023-04-02T20:09:14.672Z,95763.66
2023-04-02T20:12:19.215Z,95774.06
2023-04-02T20:15:21.817Z,95774.41
2023-04-02T20:18:25.099Z,95777.59
2023-04-02T20:21:27.657Z,95786.28
2023-04-02T20:24:30.899Z,95797.41
2023-04-02T20:27:34.240Z,95787.84
2023-04-02T20:30:36.639Z,95796.38
2023-04-02T20:33:39.598Z,95807.06
2023-04-02T20:36:42.324Z,95811.50
2023-04-02T20:39:44.421Z,95813.50
2023-04-02T20:42:49.061Z,95827.22
2023-04-02T20:45:54.329Z,95827.81
2023-04-02T20:48:56.221Z,95830.69
2023-04-02T20:51:58.186Z,95839.28
2023-04-02T20:55:00.001Z,95835.56
2023-04-02T20:58:03.326Z,95839.78
2023-04-02T21:01:06.587Z,95835.19
2023-04-02T21:04:08.269Z,95835.28
2023-04-02T21:07:09.856Z,95842.19
2023-04-02T21:10:11.428Z,95842.03
2023-04-02T21:13:14.630Z,95843.09
2023-04-02T21:16:17.603Z,95839.31
2023-04-02T21:19:19.280Z,95842.84
2023-04-02T21:22:21.402Z,95846.38
2023-04-02T21:25:23.042Z,95849.38
2023-04-02T21:28:26.443Z,95849.66
2023-04-02T21:31:31.763Z,95843.75
2023-04-02T21:34:36.532Z,95848.69
2023-04-02T21:37:38.108Z,95846.06
2023-04-02T21:40:39.669Z,95850.78
2023-04-02T21:43:42.809Z,95852.91
2023-04-02T21:46:44.697Z,95860.22
2023-04-02T21:49:46.365Z,95859.94
2023-04-02T21:52:48.396Z,95864.06
2023-04-02T21:55:49.952Z,95863.91
2023-04-02T21:58:53.123Z,95871.69
2023-04-02T22:01:54.752Z,95870.00
2023-04-02T22:04:56.411Z,95865.91
2023-04-02T22:07:58.080Z,95866.97
2023-04-02T22:11:04.159Z,95870.25
2023-04-02T22:14:07.752Z,95869.38
2023-04-02T22:17:09.279Z,95879.25
2023-04-02T22:20:11.790Z,95874.78
2023-04-02T22:23:13.450Z,95884.31
2023-04-02T22:26:16.113Z,95877.81
2023-04-02T22:29:19.063Z,95878.91
2023-04-02T22:32:20.598Z,95880.53
2023-04-02T22:35:22.135Z,95870.88
2023-04-02T22:38:24.277Z,95882.03
2023-04-02T22:41:27.133Z,95885.94
2023-04-02T22:44:30.098Z,95882.72
2023-04-02T22:47:32.002Z,95888.06
2023-04-02T22:50:36.582Z,95890.16
2023-04-02T22:53:39.258Z,95885.41
2023-04-02T22:56:41.022Z,95884.81
2023-04-02T22:59:43.998Z,95879.25
2023-04-02T23:02:46.032Z,95886.41
2023-04-02T23:05:57.672Z,95892.34
2023-04-02T23:08:59.408Z,95892.13
2023-04-02T23:12:01.171Z,95892.50
2023-04-02T23:15:04.889Z,95891.53
2023-04-02T23:18:06.594Z,95890.78
2023-04-02T23:21:08.883Z,95892.88
2023-04-02T23:24:11.252Z,95892.72
2023-04-02T23:27:15.495Z,95892.16
2023-04-02T23:30:18.675Z,95887.94
2023-04-02T23:33:20.557Z,95888.91
2023-04-02T23:36:22.987Z,95884.44
2023-04-02T23:39:24.621Z,95885.84
2023-04-02T23:42:27.242Z,95883.97
2023-04-02T23:45:30.980Z,95884.41
2023-04-02T23:48:32.546Z,95889.06
2023-04-02T23:51:34.728Z,95879.97
2023-04-02T23:54:36.251Z,95885.44
2023-04-02T23:57:37.873Z,95887.47
